createdAt,value
2018-01-11T00:00:11.818Z,67.7
2018-01-11T00:15:05.452Z,68.1
2018-01-11T00:30:04.643Z,68.4
2018-01-11T00:45:05.638Z,68.5
2018-01-11T01:00:05.128Z,68.1
2018-01-11T01:15:06.141Z,68.1
2018-01-11T01:30:04.419Z,68.5
2018-01-11T01:45:05.092Z,68.5
2018-01-11T02:00:04.591Z,69.7
2018-01-11T02:15:15.234Z,69.7
2018-01-11T02:30:05.848Z,69.5
2018-01-11T02:45:05.802Z,69.1
2018-01-11T03:00:05.274Z,69.6
2018-01-11T03:15:08.430Z,69.9
2018-01-11T03:30:05.204Z,70.2
2018-01-11T03:45:07.410Z,70.4
2018-01-11T04:00:04.439Z,70.2
2018-01-11T04:15:08.010Z,70
2018-01-11T04:30:36.543Z,70.5
2018-01-11T04:45:06.275Z,70
2018-01-11T05:00:04.899Z,70.7
2018-01-11T05:15:04.693Z,71
2018-01-11T05:30:07.813Z,70.6
2018-01-11T05:45:05.071Z,70.7
2018-01-11T06:00:05.581Z,71
2018-01-11T06:15:14.776Z,71.2
2018-01-11T06:30:04.548Z,70.8
2018-01-11T06:45:04.459Z,71.1
2018-01-11T07:00:04.885Z,71.9
2018-01-11T07:15:04.245Z,71.1
2018-01-11T07:30:04.872Z,70.9
2018-01-11T07:45:05.350Z,71.2
2018-01-11T08:00:04.811Z,71.5
2018-01-11T08:15:05.180Z,71.3
2018-01-11T08:30:04.293Z,71.3
2018-01-11T08:45:05.194Z,70.7
2018-01-11T09:00:05.612Z,70.9
2018-01-11T09:15:04.592Z,71.3
2018-01-11T09:30:07.874Z,70.5
2018-01-11T09:45:04.820Z,68.8
2018-01-11T10:00:05.356Z,67.3
2018-01-11T10:15:07.289Z,66.6
2018-01-11T10:30:04.913Z,67.1
2018-01-11T10:45:04.797Z,66.1
2018-01-11T11:00:05.774Z,65.3
2018-01-11T11:15:05.368Z,64.8
2018-01-11T11:30:07.629Z,64.3
2018-01-11T11:45:07.718Z,65.6
2018-01-11T12:00:04.640Z,65.6
2018-01-11T12:15:04.529Z,64.9
2018-01-11T12:30:06.247Z,63.6
2018-01-11T12:45:11.326Z,63.9
2018-01-11T13:00:06.376Z,64
2018-01-11T13:15:04.829Z,64.6
2018-01-11T13:30:04.917Z,63.5
2018-01-11T13:45:04.396Z,63.4
2018-01-11T14:00:05.910Z,62.5
2018-01-11T14:15:04.888Z,63.4
2018-01-11T14:30:04.543Z,63.2
2018-01-11T14:45:05.454Z,64
2018-01-11T15:00:04.355Z,63.9
2018-01-11T15:15:04.848Z,63.6
2018-01-11T15:30:04.420Z,63.8
2018-01-11T15:45:04.311Z,63.8
2018-01-11T16:00:04.699Z,63.9
2018-01-11T16:15:04.584Z,64.4
2018-01-11T16:30:05.214Z,64.7
2018-01-11T16:45:05.686Z,64.8
2018-01-11T17:00:05.162Z,65.5
2018-01-11T17:15:05.107Z,65.4
2018-01-11T17:30:04.683Z,65.7
2018-01-11T17:45:05.095Z,66.1
2018-01-11T18:00:04.560Z,66.3
2018-01-11T18:15:04.966Z,66.7
2018-01-11T18:45:05.904Z,67.3
2018-01-11T19:00:11.524Z,67.9
2018-01-11T19:15:04.887Z,68.1
2018-01-11T19:30:04.546Z,68.5
2018-01-11T19:45:04.461Z,68.6
2018-01-11T20:00:04.933Z,69
2018-01-11T20:15:04.502Z,68.2
2018-01-11T20:30:06.199Z,68.2
2018-01-11T20:45:05.236Z,69.1
2018-01-11T21:00:06.487Z,69.2
2018-01-11T21:15:05.487Z,68.7
2018-01-11T21:30:05.301Z,68.7
2018-01-11T21:45:04.498Z,68.8
2018-01-11T22:00:04.613Z,69
2018-01-11T22:15:04.664Z,69
2018-01-11T22:30:04.437Z,69.3
2018-01-11T22:45:05.222Z,69.4
2018-01-11T23:00:05.308Z,69.5
2018-01-11T23:15:05.271Z,69.3
2018-01-11T23:30:05.139Z,69.7
2018-01-11T23:45:04.609Z,69.7
